KTAD/TAD METAR and TAF weather

Enter ICAO airport designator
Station Type Date Time Source
KTAD METAR 2018/12/18 18:54 UTC NOAA

KTAD 181854Z AUTO 02008KT 10SM CLR 11/M08 A2999 RMK AO2 SLP121 T01111083


Station Type Date Time Source
KTAD Decoded METAR 2018/12/18 18:54 UTC NOAA

Trinidad, Perry Stokes Airport, CO, United States (KTAD) 37-16N 104-26W
Dec 18, 2018 - 01:54 PM EST / 2018.12.18 1854 UTC
Wind: from the NNE (020 degrees) at 9 MPH (8 KT):0
Visibility: 10 mile(s):0
Sky conditions: clear
Temperature: 52.0 F (11.1 C)
Dew Point: 17.1 F (-8.3 C)
Relative Humidity: 24%
Pressure (altimeter): 29.99 in. Hg (1015 hPa)
ob: KTAD 181854Z AUTO 02008KT 10SM CLR 11/M08 A2999 RMK AO2 SLP121 T01111083
cycle: 19

Station Type Date Time Source
KTAD TAF UTC NOAA

Error!


Example: see airport list